< < Back
Terminal Aerodrome Forecast


Current Version              Previous Versions:   1  2  3  4  5  6  7  8  9  

Terminal Aerodrome Forecast

240
FTUS42 KMLB 271127
TAFDAB
TAF
KDAB 271127Z 2712/2812 18004KT P6SM FEW060
     FM271700 09008KT P6SM FEW040
     FM280200 19003KT P6SM SKC=

Latest METAR

612
SAUS80 KWBC 280000 RRA
MTRDAB
METAR KDAB 272353Z 11004KT 10SM FEW040 FEW065 SCT095 SCT250 29/23 A3004
RMK AO2 SLP170 CB DSNT W NW T02940233 10344 20294 55002 $


USA.gov is the U.S. government's official web portal to all federal, state and local government web resources and services.